createdAt,value
2022-10-04T00:01:28.017Z,12.32
2022-10-04T00:04:07.436Z,12.42
2022-10-04T00:06:39.559Z,12.43
2022-10-04T00:09:13.416Z,12.17
2022-10-04T00:11:46.251Z,12.08
2022-10-04T00:14:20.986Z,11.92
2022-10-04T00:16:50.863Z,12.31
2022-10-04T00:19:45.295Z,11.86
2022-10-04T00:22:17.753Z,12.42
2022-10-04T00:25:20.149Z,12.68
2022-10-04T00:28:18.467Z,11.81
2022-10-04T00:31:03.760Z,12.40
2022-10-04T00:33:37.340Z,12.33
2022-10-04T00:36:37.906Z,12.24
2022-10-04T00:39:44.926Z,12.70
2022-10-04T00:42:54.742Z,12.44
2022-10-04T00:45:35.401Z,12.58
2022-10-04T00:48:31.399Z,12.10
2022-10-04T00:51:06.255Z,11.85
2022-10-04T00:53:54.895Z,12.47
2022-10-04T00:56:29.841Z,12.52
2022-10-04T00:59:28.594Z,12.17
2022-10-04T01:01:59.202Z,12.71
2022-10-04T01:04:40.948Z,12.28
2022-10-04T01:07:11.344Z,12.43
2022-10-04T01:09:48.436Z,12.09
2022-10-04T01:12:28.803Z,12.08
2022-10-04T01:15:06.348Z,12.26
2022-10-04T01:17:35.061Z,12.71
2022-10-04T01:20:04.217Z,12.02
2022-10-04T01:22:41.502Z,12.45
2022-10-04T01:25:10.644Z,12.47
2022-10-04T01:27:44.318Z,12.12
2022-10-04T01:30:14.935Z,12.15
2022-10-04T01:32:45.358Z,12.09
2022-10-04T01:35:17.122Z,11.98
2022-10-04T01:37:47.243Z,11.79
2022-10-04T01:40:16.431Z,12.00
2022-10-04T01:42:51.586Z,11.96
2022-10-04T01:45:29.900Z,12.25
2022-10-04T01:48:02.124Z,12.03
2022-10-04T01:50:35.025Z,11.79
2022-10-04T01:53:15.809Z,12.00
2022-10-04T01:55:47.432Z,11.77
2022-10-04T01:58:20.032Z,11.81
2022-10-04T02:00:55.427Z,11.98
2022-10-04T02:03:31.063Z,11.89
2022-10-04T02:06:02.523Z,11.89
2022-10-04T02:08:35.868Z,11.99
2022-10-04T02:11:06.463Z,11.86
2022-10-04T02:13:41.367Z,11.90
2022-10-04T02:16:12.965Z,11.90
2022-10-04T02:18:44.300Z,11.76
2022-10-04T02:21:15.379Z,11.90
2022-10-04T02:23:46.983Z,11.62
2022-10-04T02:26:15.606Z,11.78
2022-10-04T02:28:44.184Z,11.60
2022-10-04T02:31:30.734Z,11.79
2022-10-04T02:34:00.351Z,11.69
2022-10-04T02:36:30.696Z,11.69
2022-10-04T02:39:04.102Z,11.66
2022-10-04T02:41:36.821Z,11.71
2022-10-04T02:44:12.848Z,11.72
2022-10-04T02:46:51.525Z,11.56
2022-10-04T02:49:29.937Z,11.79
2022-10-04T02:52:05.528Z,11.43
2022-10-04T02:54:41.224Z,11.65
2022-10-04T02:57:16.850Z,11.42
2022-10-04T02:59:45.413Z,11.79
2022-10-04T03:02:29.561Z,11.71
2022-10-04T03:05:06.220Z,11.62
2022-10-04T03:07:37.093Z,11.69
2022-10-04T03:10:12.143Z,11.38
2022-10-04T03:12:42.055Z,11.51
2022-10-04T03:15:13.159Z,11.61
2022-10-04T03:17:43.150Z,11.57
2022-10-04T03:20:16.358Z,11.43
2022-10-04T03:22:47.445Z,11.44
2022-10-04T03:25:21.839Z,11.63
2022-10-04T03:27:52.537Z,11.41
2022-10-04T03:30:21.311Z,11.55
2022-10-04T03:32:51.648Z,11.41
2022-10-04T03:35:29.738Z,11.34
2022-10-04T03:37:59.269Z,11.53
2022-10-04T03:40:32.755Z,11.56
2022-10-04T03:43:04.695Z,11.56
2022-10-04T03:45:35.770Z,11.79
2022-10-04T03:48:08.232Z,11.90
2022-10-04T03:50:41.317Z,11.83
2022-10-04T03:53:17.394Z,11.73
2022-10-04T03:55:47.645Z,11.78
2022-10-04T03:58:19.289Z,11.88
2022-10-04T04:01:03.200Z,11.86
2022-10-04T04:03:39.297Z,12.22
2022-10-04T04:06:15.247Z,12.14
2022-10-04T04:08:46.971Z,12.13
2022-10-04T04:11:23.099Z,12.19
2022-10-04T04:13:59.878Z,12.22
2022-10-04T04:16:29.175Z,12.27
2022-10-04T04:19:04.756Z,12.34
2022-10-04T04:21:34.363Z,12.46
2022-10-04T04:24:08.344Z,12.28
2022-10-04T04:26:43.526Z,12.43
2022-10-04T04:29:19.827Z,12.45
2022-10-04T04:31:53.900Z,12.26
2022-10-04T04:34:26.100Z,12.51
2022-10-04T04:37:00.406Z,12.28
2022-10-04T04:39:37.537Z,11.94
2022-10-04T04:42:19.354Z,12.46
2022-10-04T04:44:50.371Z,12.43
2022-10-04T04:47:31.571Z,12.50
2022-10-04T04:50:06.927Z,12.44
2022-10-04T04:52:37.241Z,12.44
2022-10-04T04:55:08.183Z,12.15
2022-10-04T04:57:40.764Z,12.40
2022-10-04T05:00:17.706Z,12.25
2022-10-04T05:02:58.374Z,12.30
2022-10-04T05:05:30.484Z,12.35
2022-10-04T05:08:13.914Z,12.47
2022-10-04T05:10:44.474Z,12.75
2022-10-04T05:13:15.997Z,12.56
2022-10-04T05:15:45.232Z,12.17
2022-10-04T05:18:29.511Z,12.78
2022-10-04T05:21:04.504Z,13.23
2022-10-04T05:23:33.908Z,13.22
2022-10-04T05:26:04.356Z,13.27
2022-10-04T05:28:34.884Z,13.21
2022-10-04T05:31:34.476Z,13.36
2022-10-04T05:34:08.178Z,13.59
2022-10-04T05:36:54.877Z,13.52
2022-10-04T05:39:29.071Z,13.86
2022-10-04T05:42:07.917Z,13.70
2022-10-04T05:44:46.036Z,13.19
2022-10-04T05:47:16.176Z,13.19
2022-10-04T05:49:51.060Z,13.29
2022-10-04T05:52:30.668Z,13.80
2022-10-04T05:55:27.300Z,13.47
2022-10-04T05:58:26.200Z,13.78
2022-10-04T06:01:15.500Z,13.67
2022-10-04T06:04:11.239Z,13.38
2022-10-04T06:06:44.380Z,13.44
2022-10-04T06:09:23.096Z,13.96
2022-10-04T06:12:02.351Z,14.37
2022-10-04T06:15:00.480Z,13.62
2022-10-04T06:17:50.654Z,14.02
2022-10-04T06:20:43.848Z,14.24
2022-10-04T06:23:17.008Z,14.63
2022-10-04T06:25:48.789Z,14.57
2022-10-04T06:28:22.961Z,14.36
2022-10-04T06:31:16.309Z,14.30
2022-10-04T06:34:02.847Z,14.84
2022-10-04T06:36:52.808Z,15.35
2022-10-04T06:39:39.559Z,14.93
2022-10-04T06:42:34.716Z,14.48
2022-10-04T06:45:31.804Z,14.06
2022-10-04T06:48:33.681Z,14.48
2022-10-04T06:51:16.629Z,14.36
2022-10-04T06:53:59.231Z,15.21
2022-10-04T06:56:56.041Z,15.39
2022-10-04T06:59:41.831Z,15.43
2022-10-04T07:02:17.610Z,15.20
2022-10-04T07:05:07.713Z,15.07
2022-10-04T07:07:42.097Z,14.88
2022-10-04T07:10:27.373Z,15.17
2022-10-04T07:13:11.957Z,15.40
2022-10-04T07:15:48.795Z,15.26
2022-10-04T07:18:24.324Z,15.31
2022-10-04T07:21:02.207Z,15.28
2022-10-04T07:23:38.380Z,15.43
2022-10-04T07:26:16.398Z,15.74
2022-10-04T07:29:04.115Z,16.52
2022-10-04T07:31:35.485Z,15.83
2022-10-04T07:34:12.030Z,16.32
2022-10-04T07:36:47.177Z,15.75
2022-10-04T07:39:20.262Z,16.04
2022-10-04T07:41:54.456Z,16.55
2022-10-04T07:44:34.263Z,16.73
2022-10-04T07:47:11.070Z,15.85
2022-10-04T07:49:40.913Z,16.06
2022-10-04T07:52:26.001Z,15.82
2022-10-04T07:55:05.474Z,16.49
2022-10-04T07:57:45.161Z,16.65
2022-10-04T08:00:19.048Z,17.20
2022-10-04T08:03:06.891Z,16.62
2022-10-04T08:05:42.305Z,17.65
2022-10-04T08:08:25.722Z,17.09
2022-10-04T08:11:08.548Z,17.18
2022-10-04T08:13:46.200Z,16.95
2022-10-04T08:16:27.376Z,17.48
2022-10-04T08:19:11.868Z,17.26
2022-10-04T08:21:48.567Z,16.69
2022-10-04T08:24:26.193Z,16.79
2022-10-04T08:27:17.017Z,16.68
2022-10-04T08:30:04.756Z,17.09
2022-10-04T08:32:47.296Z,16.20
2022-10-04T08:35:34.411Z,16.88
2022-10-04T08:38:21.427Z,17.19
2022-10-04T08:41:27.987Z,18.06
2022-10-04T08:44:17.526Z,17.08
2022-10-04T08:47:12.027Z,17.32
2022-10-04T08:50:09.491Z,16.75
2022-10-04T08:53:11.074Z,16.71
2022-10-04T08:56:18.013Z,16.78
2022-10-04T08:59:17.467Z,17.18
2022-10-04T09:02:41.859Z,17.80
2022-10-04T09:05:31.251Z,16.50
2022-10-04T09:08:40.264Z,16.85
2022-10-04T09:11:28.236Z,16.92
2022-10-04T09:14:20.273Z,16.15
2022-10-04T09:16:50.637Z,16.09
2022-10-04T09:19:24.149Z,15.88
2022-10-04T09:22:14.695Z,15.91
2022-10-04T09:25:07.033Z,15.86
2022-10-04T09:27:58.669Z,16.24
2022-10-04T09:30:42.821Z,16.15
2022-10-04T09:33:52.245Z,16.02
2022-10-04T09:36:43.218Z,16.72
2022-10-04T09:39:37.084Z,16.78
2022-10-04T09:42:38.529Z,17.26
2022-10-04T09:45:45.752Z,16.82
2022-10-04T09:48:40.720Z,17.04
2022-10-04T09:51:24.828Z,17.24
2022-10-04T09:54:15.641Z,17.48
2022-10-04T09:57:13.807Z,17.47
2022-10-04T10:00:10.756Z,17.51
2022-10-04T10:03:12.239Z,17.01
2022-10-04T10:06:04.664Z,16.38
2022-10-04T10:08:45.541Z,16.68
2022-10-04T10:11:39.415Z,16.52
2022-10-04T10:14:52.126Z,16.60
2022-10-04T10:17:30.325Z,16.38
2022-10-04T10:20:31.309Z,16.54
2022-10-04T10:23:46.932Z,16.47
2022-10-04T10:26:38.296Z,16.29
2022-10-04T10:29:32.949Z,16.34
2022-10-04T10:32:20.729Z,15.88
2022-10-04T10:35:20.636Z,16.25
2022-10-04T10:38:15.501Z,16.58
2022-10-04T10:40:59.993Z,16.42
2022-10-04T10:43:55.578Z,16.41
2022-10-04T10:46:38.096Z,17.12
2022-10-04T10:49:31.986Z,17.01
2022-10-04T10:52:42.504Z,16.80
2022-10-04T10:55:30.363Z,17.03
2022-10-04T10:58:38.972Z,17.29
2022-10-04T11:01:35.771Z,17.59
2022-10-04T11:04:26.983Z,17.62
2022-10-04T11:07:16.567Z,16.90
2022-10-04T11:10:06.896Z,16.85
2022-10-04T11:12:58.068Z,16.49
2022-10-04T11:16:01.434Z,16.49
2022-10-04T11:19:07.806Z,16.08
2022-10-04T11:22:07.712Z,16.64
2022-10-04T11:25:01.879Z,15.81
2022-10-04T11:27:49.349Z,13.96
2022-10-04T11:30:23.648Z,13.07
2022-10-04T11:33:28.445Z,12.74
2022-10-04T11:36:34.380Z,12.77
2022-10-04T11:39:16.743Z,12.32
2022-10-04T11:41:52.377Z,12.04
2022-10-04T11:45:00.005Z,12.18
2022-10-04T11:47:43.247Z,11.87
2022-10-04T11:50:35.348Z,11.97
2022-10-04T11:53:37.388Z,12.14
2022-10-04T11:56:36.439Z,11.49
2022-10-04T11:59:22.048Z,11.40
2022-10-04T12:02:27.154Z,11.78
2022-10-04T12:05:39.387Z,11.87
2022-10-04T12:08:28.757Z,12.15
2022-10-04T12:11:26.761Z,11.90
2022-10-04T12:14:12.051Z,11.88
2022-10-04T12:17:04.062Z,11.81
2022-10-04T12:19:55.594Z,12.11
2022-10-04T12:22:40.262Z,12.58
2022-10-04T12:25:42.884Z,12.30
2022-10-04T12:28:27.955Z,12.68
2022-10-04T12:31:12.724Z,13.14
2022-10-04T12:33:50.461Z,13.34
2022-10-04T12:36:41.203Z,12.49
2022-10-04T12:39:22.297Z,13.01
2022-10-04T12:42:02.412Z,12.94
2022-10-04T12:44:45.873Z,12.81
2022-10-04T12:47:48.379Z,12.46
2022-10-04T12:50:27.337Z,12.94
2022-10-04T12:52:59.193Z,12.90
2022-10-04T12:55:48.793Z,12.99
2022-10-04T12:58:26.138Z,12.80
2022-10-04T13:01:02.319Z,13.24
2022-10-04T13:03:42.954Z,13.71
2022-10-04T13:06:22.191Z,12.83
2022-10-04T13:09:02.926Z,13.59
2022-10-04T13:11:50.237Z,12.92
2022-10-04T13:14:33.412Z,13.21
2022-10-04T13:17:34.845Z,12.74
2022-10-04T13:20:19.507Z,13.16
2022-10-04T13:22:57.736Z,12.69
2022-10-04T13:26:03.566Z,13.38
2022-10-04T13:28:39.701Z,12.57
2022-10-04T13:31:15.205Z,12.20
2022-10-04T13:33:50.947Z,12.47
2022-10-04T13:36:27.727Z,11.86
2022-10-04T13:39:25.613Z,12.28
2022-10-04T13:42:12.246Z,12.30
2022-10-04T13:45:03.189Z,12.12
2022-10-04T13:47:55.772Z,12.35
2022-10-04T13:50:38.382Z,11.80
2022-10-04T13:53:44.188Z,12.18
2022-10-04T13:56:40.610Z,12.04
2022-10-04T13:59:19.934Z,11.98
2022-10-04T14:02:29.950Z,12.00
2022-10-04T14:05:34.486Z,11.90
2022-10-04T14:08:36.895Z,11.87
2022-10-04T14:11:35.941Z,12.41
2022-10-04T14:14:45.268Z,12.45
2022-10-04T14:17:28.979Z,11.63
2022-10-04T14:20:24.227Z,11.97
2022-10-04T14:23:24.355Z,11.79
2022-10-04T14:26:20.337Z,12.03
2022-10-04T14:29:21.685Z,12.07
2022-10-04T14:32:20.657Z,11.46
2022-10-04T14:34:58.311Z,11.90
2022-10-04T14:38:04.992Z,12.08
2022-10-04T14:41:09.573Z,11.84
2022-10-04T14:44:15.957Z,11.13
2022-10-04T14:46:56.188Z,11.83
2022-10-04T14:49:40.057Z,11.87
2022-10-04T14:52:25.687Z,11.98
2022-10-04T14:54:58.799Z,11.99
2022-10-04T14:57:53.079Z,11.88
2022-10-04T15:00:23.890Z,11.93
2022-10-04T15:03:20.888Z,12.32
2022-10-04T15:06:11.158Z,12.22
2022-10-04T15:09:07.358Z,12.28
2022-10-04T15:12:21.555Z,12.28
2022-10-04T15:15:16.898Z,12.42
2022-10-04T15:18:00.101Z,12.02
2022-10-04T15:20:34.751Z,11.85
2022-10-04T15:23:16.122Z,11.95
2022-10-04T15:25:47.489Z,11.89
2022-10-04T15:28:36.216Z,11.72
2022-10-04T15:31:18.412Z,12.20
2022-10-04T15:34:06.739Z,12.13
2022-10-04T15:37:15.690Z,12.08
2022-10-04T15:40:30.799Z,12.00
2022-10-04T15:43:22.068Z,11.97
2022-10-04T15:46:26.860Z,11.84
2022-10-04T15:49:14.318Z,11.85
2022-10-04T15:52:04.771Z,11.86
2022-10-04T15:55:08.779Z,11.79
2022-10-04T15:57:56.865Z,11.78
2022-10-04T16:00:35.868Z,11.85
2022-10-04T16:03:18.445Z,11.64
2022-10-04T16:06:04.255Z,11.73
2022-10-04T16:09:06.560Z,12.00
2022-10-04T16:11:48.881Z,11.81
2022-10-04T16:14:40.223Z,11.54
2022-10-04T16:17:47.566Z,11.66
2022-10-04T16:21:09.309Z,11.93
2022-10-04T16:23:51.389Z,11.94
2022-10-04T16:26:56.352Z,11.99
2022-10-04T16:29:34.711Z,12.06
2022-10-04T16:32:16.996Z,11.89
2022-10-04T16:34:54.844Z,11.88
2022-10-04T16:37:56.586Z,12.14
2022-10-04T16:40:41.150Z,12.15
2022-10-04T16:43:26.432Z,12.17
2022-10-04T16:46:20.256Z,12.47
2022-10-04T16:48:56.275Z,12.30
2022-10-04T16:51:44.241Z,12.56
2022-10-04T16:54:44.424Z,12.19
2022-10-04T16:57:28.870Z,11.94
2022-10-04T17:00:00.753Z,11.87
2022-10-04T17:03:06.864Z,12.00
2022-10-04T17:05:59.135Z,11.95
2022-10-04T17:08:49.899Z,12.12
2022-10-04T17:12:01.949Z,12.44
2022-10-04T17:15:08.434Z,12.70
2022-10-04T17:17:54.422Z,12.69
2022-10-04T17:20:39.725Z,12.69
2022-10-04T17:23:46.845Z,12.74
2022-10-04T17:26:34.921Z,12.87
2022-10-04T17:29:17.227Z,12.85
2022-10-04T17:31:59.237Z,12.90
2022-10-04T17:34:47.035Z,12.95
2022-10-04T17:37:29.869Z,12.89
2022-10-04T17:40:22.222Z,12.92
2022-10-04T17:43:00.656Z,12.99
2022-10-04T17:45:45.573Z,12.78
2022-10-04T17:48:36.412Z,12.70
2022-10-04T17:51:31.823Z,12.77
2022-10-04T17:56:04.408Z,12.52
2022-10-04T17:58:43.277Z,12.60
2022-10-04T18:01:17.852Z,12.96
2022-10-04T18:03:52.800Z,12.58
2022-10-04T18:06:31.672Z,12.60
2022-10-04T18:09:04.332Z,12.34
2022-10-04T18:11:47.501Z,12.32
2022-10-04T18:14:42.238Z,12.44
2022-10-04T18:17:14.980Z,12.14
2022-10-04T18:19:55.064Z,12.19
2022-10-04T18:22:27.425Z,12.32
2022-10-04T18:25:17.431Z,12.25
2022-10-04T18:27:55.059Z,11.85
2022-10-04T18:30:24.528Z,11.92
2022-10-04T18:32:55.857Z,12.22
2022-10-04T18:35:39.740Z,12.14
2022-10-04T18:38:24.662Z,12.09
2022-10-04T18:40:59.757Z,11.84
2022-10-04T18:43:33.349Z,11.44
2022-10-04T18:46:16.017Z,11.81
2022-10-04T18:48:54.468Z,11.61
2022-10-04T18:51:27.889Z,11.85
2022-10-04T18:54:21.494Z,11.64
2022-10-04T18:57:00.992Z,12.40
2022-10-04T18:59:56.602Z,12.37
2022-10-04T19:02:35.069Z,12.37
2022-10-04T19:05:17.930Z,12.43
2022-10-04T19:07:59.188Z,12.14
2022-10-04T19:10:33.806Z,12.11
2022-10-04T19:13:15.588Z,11.94
2022-10-04T19:15:58.773Z,12.08
2022-10-04T19:18:44.675Z,12.25
2022-10-04T19:21:26.711Z,12.06
2022-10-04T19:24:18.398Z,12.15
2022-10-04T19:26:51.655Z,12.07
2022-10-04T19:29:34.192Z,11.84
2022-10-04T19:32:09.114Z,11.90
2022-10-04T19:34:49.223Z,11.41
2022-10-04T19:37:27.015Z,11.22
2022-10-04T19:40:07.506Z,11.41
2022-10-04T19:42:46.205Z,11.35
2022-10-04T19:45:27.177Z,11.38
2022-10-04T19:48:03.176Z,11.35
2022-10-04T19:50:37.260Z,11.35
2022-10-04T19:53:16.508Z,11.47
2022-10-04T19:55:52.755Z,11.39
2022-10-04T19:58:32.099Z,11.36
2022-10-04T20:01:14.286Z,11.40
2022-10-04T20:03:45.825Z,11.36
2022-10-04T20:06:26.325Z,11.58
2022-10-04T20:09:02.273Z,11.41
2022-10-04T20:11:49.632Z,11.24
2022-10-04T20:15:02.497Z,11.44
2022-10-04T20:17:34.473Z,11.69
2022-10-04T20:20:04.928Z,11.36
2022-10-04T20:22:56.693Z,11.37
2022-10-04T20:26:07.550Z,11.58
2022-10-04T20:28:44.551Z,11.58
2022-10-04T20:31:52.190Z,11.54
2022-10-04T20:34:32.776Z,11.43
2022-10-04T20:37:03.646Z,11.38
2022-10-04T20:40:02.352Z,11.13
2022-10-04T20:42:39.369Z,10.89
2022-10-04T20:45:23.669Z,11.50
2022-10-04T20:47:57.740Z,11.02
2022-10-04T20:50:49.812Z,11.26
2022-10-04T20:53:24.533Z,11.00
2022-10-04T20:56:09.376Z,11.34
2022-10-04T20:58:37.999Z,11.13
2022-10-04T21:01:40.095Z,11.18
2022-10-04T21:04:15.864Z,11.43
2022-10-04T21:07:01.542Z,11.71
2022-10-04T21:09:35.017Z,11.28
2022-10-04T21:12:04.363Z,11.20
2022-10-04T21:14:36.327Z,11.08
2022-10-04T21:17:06.199Z,11.39
2022-10-04T21:19:46.980Z,11.26
2022-10-04T21:22:40.953Z,11.41
2022-10-04T21:25:32.206Z,11.22
2022-10-04T21:28:35.674Z,10.98
2022-10-04T21:31:07.203Z,11.15
2022-10-04T21:33:37.092Z,10.97
2022-10-04T21:36:07.456Z,10.90
2022-10-04T21:38:36.026Z,11.22
2022-10-04T21:41:06.906Z,11.00
2022-10-04T21:43:47.746Z,11.14
2022-10-04T21:46:20.241Z,10.81
2022-10-04T21:48:52.067Z,10.75
2022-10-04T21:51:23.871Z,10.98
2022-10-04T21:53:52.332Z,11.09
2022-10-04T21:56:24.837Z,10.77
2022-10-04T21:58:53.359Z,10.73
2022-10-04T22:01:21.840Z,10.83
2022-10-04T22:03:50.246Z,10.55
2022-10-04T22:06:20.233Z,10.45
2022-10-04T22:08:49.705Z,10.49
2022-10-04T22:11:18.416Z,10.41
2022-10-04T22:13:55.498Z,10.28
2022-10-04T22:16:24.097Z,10.03
2022-10-04T22:18:52.641Z,10.60
2022-10-04T22:21:21.018Z,10.59
2022-10-04T22:23:52.192Z,10.21
2022-10-04T22:26:23.623Z,10.31
2022-10-04T22:28:55.179Z,10.05
2022-10-04T22:31:27.597Z,10.39
2022-10-04T22:33:56.924Z,10.54
2022-10-04T22:36:28.461Z,10.67
2022-10-04T22:39:01.926Z,10.95
2022-10-04T22:41:33.281Z,10.57
2022-10-04T22:44:11.666Z,10.47
2022-10-04T22:46:48.183Z,10.35
2022-10-04T22:49:19.303Z,10.39
2022-10-04T22:51:50.221Z,10.54
2022-10-04T22:54:22.110Z,10.57
2022-10-04T22:56:50.968Z,10.65
2022-10-04T22:59:22.209Z,11.13
2022-10-04T23:01:50.807Z,10.97
2022-10-04T23:04:24.601Z,11.03
2022-10-04T23:06:54.196Z,11.00
2022-10-04T23:09:24.788Z,10.66
2022-10-04T23:11:53.239Z,10.59
2022-10-04T23:14:24.301Z,10.58
2022-10-04T23:16:55.297Z,10.37
2022-10-04T23:19:24.005Z,10.18
2022-10-04T23:21:52.423Z,10.29
2022-10-04T23:24:23.539Z,10.15
2022-10-04T23:26:57.295Z,10.10
2022-10-04T23:29:33.029Z,10.15
2022-10-04T23:32:10.884Z,9.98
2022-10-04T23:34:52.962Z,10.06
2022-10-04T23:37:27.075Z,10.30
2022-10-04T23:39:55.840Z,10.14
2022-10-04T23:42:29.888Z,10.16
2022-10-04T23:45:02.362Z,10.31
2022-10-04T23:47:35.044Z,10.40
2022-10-04T23:50:08.659Z,10.28
2022-10-04T23:52:40.080Z,10.29
2022-10-04T23:55:17.190Z,10.41
2022-10-04T23:57:45.886Z,10.23
